Time;durP1;ratioP1;P1;durP2;ratioP2;P2;SDS_P1;SDS_P2;PMS_P1;PMS_P2;Temp;Humidity;BMP_temperature;BMP_pressure;BME280_temperature;BME280_humidity;BME280_pressure;Samples;Min_cycle;Max_cycle;Signal;HPM_P1;HPM_P2
2022/04/13 00:01:05;;;;;;;2.13;1.10;;;23.60;52.00;;;;;;5075897;28;20809;-82
2022/04/13 00:03:32;;;;;;;1.27;1.13;;;23.60;52.00;;;;;;5075939;28;20478;-84
2022/04/13 00:05:59;;;;;;;1.20;1.03;;;23.60;52.00;;;;;;5075578;28;20790;-83
2022/04/13 00:08:27;;;;;;;1.33;1.23;;;23.60;52.00;;;;;;5075637;28;20805;-82
2022/04/13 00:10:54;;;;;;;1.30;1.20;;;23.60;52.00;;;;;;5075561;28;20448;-83
2022/04/13 00:13:26;;;;;;;1.20;1.10;;;23.60;52.00;;;;;;5075663;28;20443;-82
2022/04/13 00:15:53;;;;;;;1.17;1.03;;;23.70;52.10;;;;;;5075574;28;20451;-83
2022/04/13 00:18:20;;;;;;;1.40;1.30;;;23.60;52.00;;;;;;5075456;28;20460;-84
2022/04/13 00:20:48;;;;;;;1.40;1.30;;;23.60;52.00;;;;;;5075459;28;20451;-83
2022/04/13 00:23:15;;;;;;;2.03;1.10;;;23.60;52.00;;;;;;5075005;28;20445;-83
2022/04/13 00:25:44;;;;;;;1.40;1.10;;;23.60;52.00;;;;;;5075238;28;20489;-84
2022/04/13 00:28:11;;;;;;;1.37;1.27;;;23.60;52.00;;;;;;5075400;28;20954;-82
2022/04/13 00:30:38;;;;;;;1.30;1.20;;;23.60;52.00;;;;;;5075268;28;20449;-83
2022/04/13 00:33:05;;;;;;;1.20;1.10;;;23.60;52.00;;;;;;5075424;28;20950;-83
2022/04/13 00:35:32;;;;;;;1.20;1.10;;;23.60;52.00;;;;;;5075182;28;20492;-82
2022/04/13 00:37:59;;;;;;;1.10;1.00;;;23.60;52.00;;;;;;5075190;28;20794;-83
2022/04/13 00:40:25;;;;;;;1.67;1.30;;;23.60;52.00;;;;;;5075107;28;21182;-83
2022/04/13 00:42:53;;;;;;;1.27;1.17;;;23.60;52.00;;;;;;5075308;28;20463;-84
2022/04/13 00:45:20;;;;;;;0.90;0.80;;;23.60;52.00;;;;;;5074984;28;20445;-83
2022/04/13 00:47:48;;;;;;;1.47;1.37;;;23.60;52.00;;;;;;5075058;28;20457;-82
2022/04/13 00:50:15;;;;;;;1.20;1.10;;;23.60;52.00;;;;;;5074809;28;20440;-83
2022/04/13 00:52:45;;;;;;;1.30;1.20;;;23.60;52.00;;;;;;5074613;28;20447;-83
2022/04/13 00:55:14;;;;;;;1.20;1.10;;;23.60;52.00;;;;;;5074715;28;20488;-82
2022/04/13 00:57:42;;;;;;;1.10;1.00;;;23.60;52.00;;;;;;5074944;28;20811;-83
2022/04/13 01:00:12;;;;;;;1.20;1.10;;;23.60;52.00;;;;;;5074657;28;20444;-86
2022/04/13 01:02:39;;;;;;;1.20;1.10;;;23.60;52.00;;;;;;5075002;28;20487;-83
2022/04/13 01:05:08;;;;;;;0.93;0.83;;;23.60;52.00;;;;;;5074563;28;20440;-83
2022/04/13 01:07:36;;;;;;;1.20;1.10;;;23.60;52.00;;;;;;5074621;28;20440;-83
2022/04/13 01:10:06;;;;;;;1.20;1.10;;;23.60;52.00;;;;;;5074364;28;20455;-83
2022/04/13 01:12:33;;;;;;;1.30;0.90;;;23.60;52.00;;;;;;5074596;28;20472;-83
2022/04/13 01:15:00;;;;;;;1.10;1.00;;;23.60;52.00;;;;;;5074336;28;21002;-84
2022/04/13 01:17:28;;;;;;;1.20;1.10;;;23.60;52.70;;;;;;5074396;28;20440;-83
2022/04/13 01:19:56;;;;;;;1.20;1.10;;;23.60;52.00;;;;;;5074262;28;20429;-83
2022/04/13 01:22:25;;;;;;;1.40;1.30;;;23.60;52.00;;;;;;5074386;28;20990;-83
2022/04/13 01:24:52;;;;;;;1.20;1.00;;;23.60;52.10;;;;;;5074093;28;20487;-83
2022/04/13 01:27:19;;;;;;;1.20;1.10;;;23.60;52.00;;;;;;5074132;28;20974;-82
2022/04/13 01:29:48;;;;;;;1.40;1.20;;;23.60;52.10;;;;;;5074317;28;20436;-83
2022/04/13 01:32:15;;;;;;;1.20;1.10;;;23.60;52.10;;;;;;5074163;28;20437;-83
2022/04/13 01:34:49;;;;;;;1.00;0.90;;;23.60;52.10;;;;;;5072980;28;20491;-83
2022/04/13 01:37:16;;;;;;;1.30;1.20;;;23.60;52.10;;;;;;5074060;28;20860;-83
2022/04/13 01:39:44;;;;;;;1.40;1.30;;;23.60;52.10;;;;;;5073957;28;20448;-84
2022/04/13 01:42:11;;;;;;;1.30;1.20;;;23.60;52.10;;;;;;5074047;28;20463;-83
2022/04/13 01:44:38;;;;;;;1.40;1.30;;;23.60;52.10;;;;;;5073903;28;20439;-83
2022/04/13 01:47:05;;;;;;;1.10;0.93;;;23.60;52.10;;;;;;5073904;28;20513;-83
2022/04/13 01:49:32;;;;;;;1.13;1.03;;;23.60;52.10;;;;;;5073854;28;20433;-83
2022/04/13 01:51:59;;;;;;;1.27;1.17;;;23.60;52.10;;;;;;5074338;28;20437;-83
2022/04/13 01:54:25;;;;;;;1.20;1.10;;;23.60;52.10;;;;;;5073536;28;20821;-83
2022/04/13 01:56:53;;;;;;;1.13;1.00;;;23.60;52.10;;;;;;5073833;28;20447;-83
2022/04/13 01:59:20;;;;;;;1.37;1.10;;;23.60;52.10;;;;;;5073871;28;20425;-83
2022/04/13 02:01:47;;;;;;;1.20;1.10;;;23.50;52.10;;;;;;5073630;28;20436;-83
2022/04/13 02:04:17;;;;;;;1.53;1.43;;;23.50;52.10;;;;;;5073641;28;20437;-83
2022/04/13 02:06:44;;;;;;;1.20;1.10;;;23.60;52.10;;;;;;5073454;28;20456;-83
2022/04/13 02:09:11;;;;;;;1.07;0.97;;;23.50;52.10;;;;;;5073572;28;20441;-83
2022/04/13 02:11:38;;;;;;;1.27;1.10;;;23.50;52.10;;;;;;5073482;28;20447;-83
2022/04/13 02:14:07;;;;;;;1.00;0.90;;;23.50;52.10;;;;;;5073152;28;20923;-83
2022/04/13 02:16:34;;;;;;;1.00;0.90;;;23.50;52.10;;;;;;5073643;28;20444;-83
2022/04/13 02:19:00;;;;;;;1.40;1.30;;;23.50;52.10;;;;;;5073531;28;20475;-83
2022/04/13 02:21:27;;;;;;;1.30;1.20;;;23.50;52.10;;;;;;5073381;28;20459;-83
2022/04/13 02:23:54;;;;;;;1.10;0.97;;;23.50;52.10;;;;;;5073254;28;20437;-83
2022/04/13 02:26:22;;;;;;;1.20;1.10;;;23.50;52.10;;;;;;5073398;28;20441;-83
2022/04/13 02:28:49;;;;;;;1.20;1.10;;;23.50;52.10;;;;;;5073522;28;20544;-83
2022/04/13 02:31:17;;;;;;;1.20;1.10;;;23.50;52.10;;;;;;5073188;28;20443;-83
2022/04/13 02:33:44;;;;;;;1.20;1.10;;;23.50;52.10;;;;;;5073081;28;20448;-83
2022/04/13 02:36:11;;;;;;;1.20;1.10;;;23.60;52.20;;;;;;5073451;28;20484;-83
2022/04/13 02:38:38;;;;;;;2.23;1.10;;;23.50;52.10;;;;;;5073287;28;20792;-83
2022/04/13 02:41:05;;;;;;;1.30;1.10;;;23.50;52.20;;;;;;5073226;28;20445;-83
2022/04/13 02:43:32;;;;;;;1.70;1.43;;;23.60;52.30;;;;;;5073472;28;20853;-83
2022/04/13 02:45:59;;;;;;;1.20;1.03;;;23.50;52.30;;;;;;5074190;28;20451;-83
2022/04/13 02:48:27;;;;;;;1.20;1.10;;;23.50;52.30;;;;;;5077354;28;20810;-83
2022/04/13 02:50:56;;;;;;;1.20;1.10;;;23.50;52.30;;;;;;5077069;28;20433;-83
2022/04/13 02:53:23;;;;;;;1.30;1.20;;;23.50;52.30;;;;;;5077180;28;20533;-83
2022/04/13 02:55:51;;;;;;;1.40;1.30;;;23.50;52.40;;;;;;5076814;28;20484;-83
2022/04/13 02:58:18;;;;;;;1.23;1.13;;;23.50;52.40;;;;;;5077064;28;20829;-82
2022/04/13 03:00:45;;;;;;;1.10;1.00;;;23.60;52.50;;;;;;5077080;28;20443;-83
2022/04/13 03:03:11;;;;;;;1.30;1.20;;;23.50;52.50;;;;;;5076843;28;20448;-82
2022/04/13 03:05:40;;;;;;;1.10;0.93;;;23.50;52.50;;;;;;5076876;28;20970;-83
2022/04/13 03:08:07;;;;;;;1.33;1.20;;;23.50;52.50;;;;;;5076855;28;20440;-83
2022/04/13 03:10:34;;;;;;;1.70;1.60;;;23.50;52.50;;;;;;5076735;28;20916;-83
2022/04/13 03:13:01;;;;;;;1.10;0.97;;;23.50;52.50;;;;;;5076837;28;20444;-82
2022/04/13 03:15:28;;;;;;;1.40;1.20;;;23.50;52.50;;;;;;5076714;28;20503;-83
2022/04/13 03:17:54;;;;;;;1.43;1.33;;;23.50;52.60;;;;;;5076837;28;20959;-83
2022/04/13 03:20:21;;;;;;;1.67;1.40;;;23.50;52.60;;;;;;5076407;28;20441;-82
2022/04/13 03:22:50;;;;;;;1.67;1.30;;;23.50;52.60;;;;;;5076587;28;20463;-83
2022/04/13 03:25:17;;;;;;;1.50;1.40;;;23.50;52.60;;;;;;5076275;28;20476;-83
2022/04/13 03:27:44;;;;;;;1.40;1.30;;;23.50;52.60;;;;;;5076499;28;20452;-82
2022/04/13 03:30:13;;;;;;;1.40;1.30;;;23.50;52.60;;;;;;5076353;28;20955;-83
2022/04/13 03:32:41;;;;;;;1.50;1.40;;;23.50;52.60;;;;;;5076579;28;20440;-82
2022/04/13 03:35:10;;;;;;;1.47;1.20;;;23.50;52.70;;;;;;5076211;28;20480;-83
2022/04/13 03:37:37;;;;;;;1.10;1.00;;;23.50;52.60;;;;;;5076344;28;20966;-83
2022/04/13 03:40:07;;;;;;;1.20;1.10;;;23.50;53.30;;;;;;5076214;28;20444;-83
2022/04/13 03:42:35;;;;;;;1.40;1.30;;;23.40;52.60;;;;;;5076516;28;20474;-81
2022/04/13 03:45:06;;;;;;;1.60;1.40;;;23.40;52.70;;;;;;5076225;28;20946;-81
2022/04/13 03:47:34;;;;;;;1.33;1.23;;;23.40;52.70;;;;;;5075870;28;20456;-85
2022/04/13 03:50:01;;;;;;;1.30;1.20;;;23.40;52.70;;;;;;5075995;28;20448;-81
2022/04/13 03:52:28;;;;;;;1.80;1.70;;;23.40;52.70;;;;;;5075719;28;20449;-83
2022/04/13 03:54:54;;;;;;;1.33;1.20;;;23.40;52.70;;;;;;5076077;28;20479;-83
2022/04/13 03:57:22;;;;;;;1.77;1.67;;;23.40;52.80;;;;;;5074976;28;20452;-83
2022/04/13 03:59:50;;;;;;;1.53;1.40;;;23.40;52.80;;;;;;5082475;28;20445;-82
2022/04/13 04:02:17;;;;;;;2.47;1.30;;;23.40;52.70;;;;;;5075902;28;20453;-83
2022/04/13 04:04:43;;;;;;;1.40;1.30;;;23.40;52.70;;;;;;5057876;28;20791;-87
2022/04/13 04:07:10;;;;;;;1.40;1.30;;;23.40;52.70;;;;;;5075828;28;20936;-83
2022/04/13 04:09:37;;;;;;;1.50;1.40;;;23.40;52.70;;;;;;5076080;28;20441;-83
2022/04/13 04:12:04;;;;;;;1.40;1.30;;;23.50;52.80;;;;;;5075754;28;20444;-86
2022/04/13 04:14:32;;;;;;;1.33;1.23;;;23.40;52.70;;;;;;5075493;28;20437;-87
2022/04/13 04:16:59;;;;;;;1.50;1.40;;;23.40;52.70;;;;;;5075512;28;20480;-83
2022/04/13 04:19:26;;;;;;;1.23;1.10;;;23.40;52.70;;;;;;5075650;28;20444;-83
2022/04/13 04:21:54;;;;;;;2.23;1.60;;;23.40;52.70;;;;;;5057396;28;20487;-83
2022/04/13 04:24:21;;;;;;;1.30;1.20;;;23.40;52.80;;;;;;5075102;28;20473;-86
2022/04/13 04:26:48;;;;;;;1.37;1.10;;;23.40;52.70;;;;;;5075209;28;20445;-86
2022/04/13 04:29:14;;;;;;;1.30;1.20;;;23.40;52.80;;;;;;5075285;28;20433;-84
2022/04/13 04:31:53;;;;;;;1.37;1.10;;;23.40;52.80;;;;;;5075251;28;20433;-83
2022/04/13 04:34:21;;;;;;;1.20;1.10;;;23.40;52.80;;;;;;5075079;28;20444;-82
2022/04/13 04:36:48;;;;;;;2.60;1.40;;;23.40;52.90;;;;;;5074966;28;20484;-83
2022/04/13 04:39:15;;;;;;;1.27;1.17;;;23.40;52.90;;;;;;5074926;28;20447;-84
2022/04/13 04:41:42;;;;;;;1.37;1.27;;;23.50;52.90;;;;;;5074975;28;20429;-82
2022/04/13 04:44:10;;;;;;;1.37;1.27;;;23.40;52.80;;;;;;5055799;28;20445;-83
2022/04/13 04:46:37;;;;;;;1.30;1.20;;;23.40;52.80;;;;;;5054782;28;20441;-87
2022/04/13 04:49:06;;;;;;;1.50;1.23;;;23.40;52.90;;;;;;5054931;28;20829;-86
2022/04/13 04:51:32;;;;;;;1.37;1.03;;;23.40;52.80;;;;;;5054842;28;20449;-87
2022/04/13 04:53:59;;;;;;;1.37;1.27;;;23.40;52.80;;;;;;5054534;28;20932;-84
2022/04/13 04:56:26;;;;;;;1.40;1.30;;;23.40;52.80;;;;;;5067326;28;20484;-82
2022/04/13 04:58:53;;;;;;;1.27;1.17;;;23.40;52.90;;;;;;5074497;28;20437;-83
2022/04/13 05:01:20;;;;;;;1.20;1.10;;;23.40;52.90;;;;;;5077613;28;20451;-84
2022/04/13 05:03:49;;;;;;;1.20;1.10;;;23.40;52.90;;;;;;5074264;28;20433;-86
2022/04/13 05:06:20;;;;;;;1.53;1.30;;;23.40;53.00;;;;;;5074488;28;20494;-86
2022/04/13 05:08:47;;;;;;;1.17;1.00;;;23.50;53.10;;;;;;5074480;28;20928;-83
2022/04/13 05:11:14;;;;;;;1.33;1.23;;;23.40;52.90;;;;;;5074538;28;20429;-82
2022/04/13 05:13:41;;;;;;;1.50;1.40;;;23.40;53.00;;;;;;5075296;28;20528;-87
2022/04/13 05:16:08;;;;;;;1.80;1.20;;;23.40;53.00;;;;;;5074573;28;20571;-81
2022/04/13 05:18:34;;;;;;;2.60;1.30;;;23.40;52.70;;;;;;5074327;28;20464;-81
2022/04/13 05:21:01;;;;;;;1.63;1.10;;;23.50;53.30;;;;;;5074179;28;20447;-84
2022/04/13 05:23:29;;;;;;;1.30;1.20;;;23.40;52.50;;;;;;5074021;28;20437;-83
2022/04/13 05:25:56;;;;;;;3.60;1.30;;;23.40;52.60;;;;;;5073411;28;20711;-82
2022/04/13 05:28:23;;;;;;;1.30;1.20;;;23.40;52.80;;;;;;5073321;28;20437;-84
2022/04/13 05:30:50;;;;;;;1.40;1.30;;;23.40;52.90;;;;;;5073342;28;20432;-86
2022/04/13 05:33:16;;;;;;;1.20;1.10;;;23.40;52.90;;;;;;5072739;28;20432;-82
2022/04/13 05:35:45;;;;;;;1.50;1.40;;;23.40;53.00;;;;;;5072812;28;20480;-82
2022/04/13 05:38:11;;;;;;;1.60;1.43;;;23.40;53.00;;;;;;5073401;28;20455;-83
2022/04/13 05:40:40;;;;;;;1.30;1.20;;;23.40;53.10;;;;;;5073102;28;20441;-85
2022/04/13 05:43:07;;;;;;;2.70;1.10;;;23.40;53.20;;;;;;5073910;28;20459;-82
2022/04/13 05:45:33;;;;;;;1.47;1.37;;;23.40;53.10;;;;;;5073930;28;20444;-83
2022/04/13 05:48:00;;;;;;;1.33;1.23;;;23.40;53.20;;;;;;5073698;28;20472;-82
2022/04/13 05:50:27;;;;;;;1.40;1.30;;;23.40;53.20;;;;;;5073752;28;20448;-82
2022/04/13 05:52:54;;;;;;;1.40;1.30;;;23.50;53.30;;;;;;5073703;28;20444;-82
2022/04/13 05:55:21;;;;;;;1.30;1.20;;;23.50;53.30;;;;;;5073779;28;20440;-82
2022/04/13 05:57:49;;;;;;;1.50;1.40;;;23.50;53.30;;;;;;5073298;28;20447;-82
2022/04/13 06:00:17;;;;;;;1.30;1.20;;;23.50;53.30;;;;;;5073592;28;20448;-83
2022/04/13 06:02:44;;;;;;;1.40;1.30;;;23.50;53.30;;;;;;5073609;28;20433;-83
2022/04/13 06:05:12;;;;;;;1.30;1.20;;;23.50;53.40;;;;;;5073225;28;20441;-83
2022/04/13 06:07:40;;;;;;;2.10;1.30;;;23.50;53.40;;;;;;5073678;28;20481;-84
2022/04/13 06:10:07;;;;;;;1.20;1.10;;;23.50;53.40;;;;;;5073507;28;20810;-83
2022/04/13 06:12:35;;;;;;;1.30;1.20;;;23.50;53.50;;;;;;5073630;28;20437;-82
2022/04/13 06:15:05;;;;;;;1.67;1.30;;;23.50;53.40;;;;;;5073376;28;20437;-83
2022/04/13 06:17:32;;;;;;;1.93;1.20;;;23.50;53.50;;;;;;5073161;28;20512;-82
2022/04/13 06:19:58;;;;;;;1.47;1.37;;;23.50;53.50;;;;;;5073059;28;20441;-83
2022/04/13 06:22:26;;;;;;;1.20;1.10;;;23.50;53.40;;;;;;5072711;28;20802;-86
2022/04/13 06:24:53;;;;;;;1.43;1.33;;;23.50;53.40;;;;;;5070029;28;20465;-87
2022/04/13 06:27:20;;;;;;;1.13;1.03;;;23.50;53.40;;;;;;5073503;28;20437;-86
2022/04/13 06:29:47;;;;;;;2.03;1.60;;;23.60;54.20;;;;;;5068539;28;20432;-81
2022/04/13 06:32:15;;;;;;;1.50;1.40;;;23.60;53.30;;;;;;5061177;28;20436;-87
2022/04/13 06:34:43;;;;;;;1.40;1.30;;;23.50;53.30;;;;;;5065229;28;20923;-88
2022/04/13 06:37:09;;;;;;;1.63;1.53;;;23.50;53.30;;;;;;5062427;28;20485;-83
2022/04/13 06:39:36;;;;;;;1.50;1.30;;;23.60;53.40;;;;;;5064800;28;20999;-81
2022/04/13 06:42:03;;;;;;;2.60;1.20;;;23.50;53.30;;;;;;5062552;28;20444;-83
2022/04/13 06:44:30;;;;;;;1.50;1.40;;;23.50;53.30;;;;;;5063283;28;20446;-83
2022/04/13 06:46:58;;;;;;;1.50;1.33;;;23.50;53.20;;;;;;5072988;28;20479;-80
2022/04/13 06:49:26;;;;;;;1.73;1.50;;;23.50;53.20;;;;;;5073917;28;20803;-83
2022/04/13 06:51:53;;;;;;;2.60;1.57;;;23.60;53.30;;;;;;5072909;28;20468;-83
2022/04/13 06:54:20;;;;;;;6.00;1.50;;;23.50;53.10;;;;;;5072241;28;20818;-82
2022/04/13 06:56:47;;;;;;;6.37;1.47;;;23.50;53.10;;;;;;5071365;28;20488;-82
2022/04/13 06:59:13;;;;;;;2.10;1.37;;;23.50;53.10;;;;;;5072533;28;20436;-84
2022/04/13 07:01:40;;;;;;;6.50;2.20;;;23.50;53.00;;;;;;5072294;28;20960;-80
2022/04/13 07:04:07;;;;;;;3.83;2.20;;;23.50;53.10;;;;;;5072283;28;20452;-81
2022/04/13 07:06:35;;;;;;;5.00;1.60;;;23.50;53.40;;;;;;5072597;28;20437;-81
2022/04/13 07:09:02;;;;;;;7.47;2.00;;;23.50;53.50;;;;;;5054504;28;20804;-83
2022/04/13 07:11:29;;;;;;;4.00;1.90;;;23.60;53.60;;;;;;5072842;28;20452;-80
2022/04/13 07:13:56;;;;;;;3.87;1.87;;;23.60;53.70;;;;;;5072828;28;20452;-80
2022/04/13 07:16:23;;;;;;;19.77;2.50;;;23.60;53.70;;;;;;5072755;28;20850;-82
2022/04/13 07:18:49;;;;;;;13.63;2.53;;;23.60;53.80;;;;;;5073115;28;20471;-82
2022/04/13 07:21:16;;;;;;;11.27;2.53;;;23.60;53.60;;;;;;5072504;28;20441;-82
2022/04/13 07:23:45;;;;;;;2.33;1.73;;;23.60;53.60;;;;;;5071726;28;20441;-82
2022/04/13 07:26:12;;;;;;;7.27;2.53;;;23.60;53.70;;;;;;5063557;28;20844;-80
2022/04/13 07:28:39;;;;;;;4.57;2.10;;;23.60;53.60;;;;;;5050905;28;20461;-80
2022/04/13 07:31:06;;;;;;;12.53;2.83;;;23.60;53.40;;;;;;5050945;28;20454;-80
2022/04/13 07:33:33;;;;;;;4.57;2.00;;;23.50;53.30;;;;;;5053010;28;20803;-79
2022/04/13 07:36:00;;;;;;;6.17;2.60;;;23.60;53.40;;;;;;5046143;28;20443;-79
2022/04/13 07:38:27;;;;;;;4.43;2.60;;;23.60;53.40;;;;;;5036688;28;20442;-80
2022/04/13 07:40:58;;;;;;;3.93;2.43;;;23.60;53.40;;;;;;5036797;28;20446;-83
2022/04/13 07:43:25;;;;;;;5.70;2.10;;;23.60;53.40;;;;;;5036658;28;20442;-79
2022/04/13 07:45:52;;;;;;;7.23;1.80;;;23.60;53.40;;;;;;5036313;28;20449;-79
2022/04/13 07:48:18;;;;;;;4.87;2.30;;;23.60;53.40;;;;;;5036082;28;20469;-82
2022/04/13 07:50:47;;;;;;;7.47;2.50;;;23.60;53.50;;;;;;5036552;28;20443;-80
2022/04/13 07:53:14;;;;;;;70.47;9.40;;;23.70;53.70;;;;;;5036022;28;20573;-79
2022/04/13 07:55:41;;;;;;;12.50;3.77;;;23.70;54.50;;;;;;5035813;28;20464;-82
2022/04/13 07:58:09;;;;;;;11.90;3.33;;;23.70;54.10;;;;;;5035759;28;20493;-79
2022/04/13 08:00:35;;;;;;;24.90;3.93;;;23.70;53.90;;;;;;5035485;28;20820;-79
2022/04/13 08:03:02;;;;;;;27.63;6.03;;;23.70;53.90;;;;;;5043488;28;20444;-82
2022/04/13 08:05:29;;;;;;;61.07;9.73;;;23.70;54.00;;;;;;5076182;28;20507;-81
2022/04/13 08:07:56;;;;;;;30.30;7.50;;;23.70;54.90;;;;;;5075565;28;20437;-81
2022/04/13 08:10:23;;;;;;;29.33;5.90;;;23.70;54.60;;;;;;5075376;28;20443;-81
2022/04/13 08:12:50;;;;;;;28.00;5.37;;;23.70;54.80;;;;;;5075742;28;20809;-82
2022/04/13 08:15:18;;;;;;;23.57;4.33;;;23.70;54.10;;;;;;5075598;28;20448;-81
2022/04/13 08:17:45;;;;;;;18.43;4.30;;;23.70;54.70;;;;;;5075607;28;20488;-82
2022/04/13 08:20:13;;;;;;;39.07;5.90;;;23.80;54.20;;;;;;5075389;28;20948;-82
2022/04/13 08:22:41;;;;;;;21.33;4.83;;;23.80;54.20;;;;;;5075516;28;20473;-82
2022/04/13 08:25:08;;;;;;;33.30;5.53;;;23.80;54.20;;;;;;5075227;28;20487;-82
2022/04/13 08:27:35;;;;;;;26.87;4.77;;;23.80;54.20;;;;;;5075511;28;20444;-82
2022/04/13 08:30:02;;;;;;;24.97;5.43;;;23.80;54.20;;;;;;5075327;28;20436;-82
2022/04/13 08:32:30;;;;;;;22.17;4.50;;;23.80;54.30;;;;;;5075199;28;20436;-82
2022/04/13 08:34:57;;;;;;;17.23;4.27;;;24.00;54.40;;;;;;5075284;28;20447;-82
2022/04/13 08:37:25;;;;;;;23.90;5.93;;;23.90;54.40;;;;;;5075074;28;20480;-82
2022/04/13 08:39:51;;;;;;;10.63;3.40;;;23.90;54.40;;;;;;5076044;28;20445;-82
2022/04/13 08:42:28;;;;;;;24.63;5.00;;;24.00;54.50;;;;;;5074821;28;20464;-82
2022/04/13 08:44:55;;;;;;;21.23;4.17;;;24.00;55.20;;;;;;5074048;28;20448;-87
2022/04/13 08:47:24;;;;;;;35.40;5.50;;;24.00;54.50;;;;;;5074496;28;20468;-82
2022/04/13 08:49:54;;;;;;;16.27;3.47;;;24.10;54.60;;;;;;5074497;28;20440;-82
2022/04/13 08:52:25;;;;;;;11.50;3.50;;;24.00;54.60;;;;;;5074684;28;20450;-82
2022/04/13 08:55:04;;;;;;;21.97;3.90;;;24.10;54.70;;;;;;5074134;28;20445;-82
2022/04/13 08:57:36;;;;;;;17.67;4.00;;;24.10;54.70;;;;;;5074436;28;20527;-82
2022/04/13 09:00:08;;;;;;;15.00;3.60;;;24.10;54.80;;;;;;5074746;28;20437;-82
2022/04/13 09:02:56;;;;;;;15.10;2.83;;;24.10;54.90;;;;;;5074612;28;20429;-81
2022/04/13 09:05:26;;;;;;;11.00;4.30;;;24.20;55.00;;;;;;5074207;28;20452;-87
2022/04/13 09:08:02;;;;;;;12.30;3.07;;;24.20;55.60;;;;;;5073964;28;20459;-82
2022/04/13 09:10:31;;;;;;;12.70;2.90;;;24.20;55.00;;;;;;5073431;28;20436;-81
2022/04/13 09:12:59;;;;;;;19.90;3.90;;;24.20;55.00;;;;;;5073408;28;20499;-82
2022/04/13 09:15:26;;;;;;;10.07;3.33;;;24.30;55.10;;;;;;5073031;28;20441;-82
2022/04/13 09:17:53;;;;;;;15.03;3.23;;;24.30;55.00;;;;;;5073072;28;20576;-83
2022/04/13 09:20:20;;;;;;;15.80;3.63;;;24.30;55.00;;;;;;5073250;28;20441;-82
2022/04/13 09:22:51;;;;;;;8.60;3.07;;;24.30;55.60;;;;;;5074048;28;20444;-82
2022/04/13 09:25:20;;;;;;;7.90;3.30;;;24.40;55.10;;;;;;5074049;28;20469;-82
2022/04/13 09:27:49;;;;;;;14.10;3.13;;;24.40;55.10;;;;;;5074013;28;20444;-82
2022/04/13 09:30:16;;;;;;;15.03;3.13;;;24.50;55.20;;;;;;5074058;28;20476;-82
2022/04/13 09:32:44;;;;;;;11.90;3.13;;;24.50;55.20;;;;;;5074051;28;20433;-82
2022/04/13 09:35:11;;;;;;;10.63;3.90;;;24.50;55.20;;;;;;5073871;28;20927;-82
2022/04/13 09:37:39;;;;;;;8.60;2.60;;;24.50;55.20;;;;;;5073982;28;20484;-86
2022/04/13 09:40:09;;;;;;;13.27;3.10;;;24.50;55.20;;;;;;5073994;28;20444;-82
2022/04/13 09:42:36;;;;;;;9.23;2.50;;;24.50;55.20;;;;;;5073929;28;20437;-82
2022/04/13 09:45:04;;;;;;;16.47;3.47;;;24.60;55.30;;;;;;5073847;28;20432;-82
2022/04/13 09:47:33;;;;;;;13.87;3.00;;;24.60;55.40;;;;;;5073606;28;20461;-85
2022/04/13 09:50:00;;;;;;;12.93;2.80;;;24.60;55.40;;;;;;5073679;28;20436;-83
2022/04/13 09:52:27;;;;;;;12.33;3.30;;;24.70;55.40;;;;;;5073663;28;20888;-82
2022/04/13 09:54:55;;;;;;;8.53;2.90;;;24.60;56.00;;;;;;5073667;28;20787;-82
2022/04/13 09:57:24;;;;;;;8.60;2.83;;;24.60;56.20;;;;;;5072966;28;20492;-82
2022/04/13 09:59:59;;;;;;;6.63;2.87;;;24.60;56.10;;;;;;5073766;28;20456;-89
2022/04/13 10:02:37;;;;;;;10.90;3.57;;;24.60;56.10;;;;;;5074577;28;20433;-90
2022/04/13 10:15:10;;;;;;;4.13;2.47;;;24.30;56.60;;;;;;5053109;28;20405;-82
2022/04/13 10:17:38;;;;;;;5.27;2.50;;;24.20;56.60;;;;;;5052608;28;20482;-82
2022/04/13 10:20:07;;;;;;;9.27;2.50;;;24.40;56.50;;;;;;5053367;28;20772;-87
2022/04/13 10:22:34;;;;;;;8.10;3.50;;;24.30;56.30;;;;;;5052466;28;20913;-86
2022/04/13 10:25:17;;;;;;;6.73;2.50;;;24.30;56.30;;;;;;5062826;28;20465;-83
2022/04/13 10:27:53;;;;;;;8.07;2.57;;;24.40;56.60;;;;;;5073271;28;20524;-81
2022/04/13 10:30:27;;;;;;;7.70;2.27;;;24.40;56.70;;;;;;5073597;28;20445;-83
2022/04/13 10:32:59;;;;;;;8.80;2.20;;;24.40;56.60;;;;;;5058119;28;20444;-82
2022/04/13 10:35:27;;;;;;;5.87;2.70;;;24.50;56.70;;;;;;5072365;28;20471;-79
2022/04/13 10:37:55;;;;;;;3.30;2.17;;;24.50;56.80;;;;;;5072769;28;20571;-79
2022/04/13 10:40:24;;;;;;;5.63;1.80;;;24.50;56.80;;;;;;5071680;28;20445;-80
2022/04/13 10:42:52;;;;;;;6.00;2.13;;;24.60;56.70;;;;;;5070843;28;20449;-79
2022/04/13 10:45:19;;;;;;;7.80;2.40;;;24.70;56.80;;;;;;5072244;28;20448;-79
2022/04/13 10:47:54;;;;;;;4.97;2.30;;;24.70;56.80;;;;;;5070741;28;20465;-80
2022/04/13 10:50:30;;;;;;;6.03;1.80;;;24.80;56.80;;;;;;5070472;28;20453;-80
2022/04/13 10:52:59;;;;;;;6.40;2.10;;;24.80;56.80;;;;;;5071880;28;20437;-79
2022/04/13 10:55:29;;;;;;;6.37;2.00;;;24.80;56.70;;;;;;5071916;28;20491;-80
2022/04/13 10:58:01;;;;;;;3.23;1.90;;;24.90;56.80;;;;;;5072263;28;20546;-81
2022/04/13 11:00:31;;;;;;;5.23;2.03;;;24.90;56.70;;;;;;5071286;28;20482;-81
2022/04/13 11:03:03;;;;;;;6.03;2.60;;;24.90;56.60;;;;;;5072798;28;20480;-81
2022/04/13 11:05:31;;;;;;;4.90;2.60;;;24.90;56.70;;;;;;5072423;28;20487;-78
2022/04/13 11:08:17;;;;;;;6.73;2.30;;;24.90;56.70;;;;;;5075154;28;20441;-79
2022/04/13 11:10:48;;;;;;;4.83;2.37;;;24.80;56.70;;;;;;5076825;28;20437;-81
2022/04/13 11:13:15;;;;;;;4.53;2.63;;;24.90;56.80;;;;;;5076841;28;20440;-82
2022/04/13 11:15:44;;;;;;;3.83;2.17;;;24.90;56.80;;;;;;5076559;28;20436;-82
2022/04/13 11:18:13;;;;;;;5.83;2.30;;;24.90;56.80;;;;;;5076246;28;20494;-81
2022/04/13 11:21:04;;;;;;;4.80;2.00;;;25.00;56.90;;;;;;5076406;28;20445;-81
2022/04/13 11:23:48;;;;;;;3.63;2.10;;;25.00;56.80;;;;;;5076612;28;20459;-81
2022/04/13 11:26:15;;;;;;;18.13;2.13;;;25.10;56.90;;;;;;5076137;28;20492;-81
2022/04/13 11:28:42;;;;;;;3.53;2.07;;;25.10;56.90;;;;;;5076304;28;20493;-81
2022/04/13 11:31:10;;;;;;;4.90;1.80;;;25.20;57.00;;;;;;5075968;28;20440;-80
2022/04/13 11:33:50;;;;;;;3.20;2.37;;;25.20;56.90;;;;;;5076303;28;20448;-81
2022/04/13 11:36:18;;;;;;;3.23;2.33;;;25.30;56.90;;;;;;5076299;28;20441;-82
2022/04/13 11:38:49;;;;;;;3.30;1.83;;;25.30;57.00;;;;;;5075675;28;21023;-81
2022/04/13 11:41:16;;;;;;;10.90;2.90;;;25.40;57.20;;;;;;5075892;28;20441;-81
2022/04/13 11:43:44;;;;;;;3.57;2.30;;;25.30;57.00;;;;;;5075164;28;20433;-78
2022/04/13 11:46:36;;;;;;;2.60;2.37;;;25.40;57.20;;;;;;5075471;28;20444;-80
2022/04/13 11:49:08;;;;;;;4.60;2.83;;;25.40;56.90;;;;;;5076038;28;20920;-78
2022/04/13 11:51:35;;;;;;;10.47;2.83;;;25.30;56.60;;;;;;5075890;28;20465;-80
2022/04/13 11:54:09;;;;;;;3.53;2.90;;;25.20;57.00;;;;;;5075788;28;20444;-79
2022/04/13 11:56:38;;;;;;;6.90;2.90;;;25.20;57.50;;;;;;5074330;28;20440;-79
2022/04/13 11:59:05;;;;;;;3.40;2.23;;;25.20;57.70;;;;;;5073559;28;20495;-79
2022/04/13 12:01:33;;;;;;;9.53;2.70;;;25.20;57.80;;;;;;5073743;28;20447;-79
2022/04/13 12:04:05;;;;;;;4.97;2.10;;;25.20;58.00;;;;;;5073632;28;20444;-78
2022/04/13 12:06:33;;;;;;;4.77;2.97;;;25.20;58.10;;;;;;5073935;28;20453;-79
2022/04/13 12:09:01;;;;;;;6.27;2.47;;;25.20;58.20;;;;;;5073686;28;20448;-79
2022/04/13 12:11:41;;;;;;;5.30;2.43;;;25.20;58.30;;;;;;5074424;28;20441;-77
2022/04/13 12:14:09;;;;;;;2.60;2.13;;;25.30;58.40;;;;;;5075284;28;20437;-79
2022/04/13 12:16:39;;;;;;;4.70;2.83;;;25.20;59.10;;;;;;5075548;28;20453;-80
2022/04/13 12:19:08;;;;;;;4.10;2.40;;;25.30;58.50;;;;;;5074417;28;20481;-79
2022/04/13 12:21:37;;;;;;;5.40;3.30;;;25.20;58.30;;;;;;5074959;28;20813;-80
2022/04/13 12:24:05;;;;;;;4.97;3.80;;;25.20;58.50;;;;;;5075467;28;20452;-78
2022/04/13 12:26:33;;;;;;;8.00;4.50;;;25.20;58.50;;;;;;5075408;28;20441;-81
2022/04/13 12:29:01;;;;;;;6.10;4.70;;;25.20;58.20;;;;;;5075235;28;20958;-80
2022/04/13 12:31:28;;;;;;;9.27;5.70;;;25.20;58.20;;;;;;5075145;28;20445;-79
2022/04/13 12:34:00;;;;;;;5.83;5.27;;;25.20;58.40;;;;;;5074992;28;20448;-79
2022/04/13 12:36:28;;;;;;;9.60;6.67;;;25.20;58.20;;;;;;5074996;28;21010;-78
2022/04/13 12:38:58;;;;;;;11.97;7.03;;;25.20;58.10;;;;;;5075029;28;20847;-79
2022/04/13 12:41:28;;;;;;;7.03;4.97;;;25.20;58.30;;;;;;5075266;28;20435;-79
2022/04/13 12:43:56;;;;;;;9.83;5.63;;;25.20;58.60;;;;;;5074848;28;20441;-79
2022/04/13 12:46:24;;;;;;;6.80;6.00;;;25.20;58.50;;;;;;5074716;28;20493;-78
2022/04/13 12:48:53;;;;;;;8.70;4.80;;;25.30;58.50;;;;;;5074690;28;20437;-79
2022/04/13 12:51:20;;;;;;;5.70;4.67;;;25.20;58.40;;;;;;5075011;28;20433;-81
2022/04/13 12:53:51;;;;;;;6.00;4.30;;;25.10;58.10;;;;;;5074649;28;20440;-80
2022/04/13 12:56:20;;;;;;;9.10;5.20;;;25.10;58.10;;;;;;5074704;28;20437;-83
2022/04/13 12:58:48;;;;;;;4.83;3.20;;;25.10;58.10;;;;;;5075199;28;20480;-81
2022/04/13 13:01:30;;;;;;;6.60;3.03;;;25.10;58.10;;;;;;5074022;28;20443;-81